createdAt,value
2019-05-12T00:02:04.182Z,12.55
2019-05-12T00:04:38.375Z,12.53
2019-05-12T00:07:09.771Z,12.49
2019-05-12T00:09:41.715Z,12.47
2019-05-12T00:12:13.675Z,12.47
2019-05-12T00:14:45.625Z,12.44
2019-05-12T00:17:18.780Z,12.42
2019-05-12T00:19:51.303Z,12.36
2019-05-12T00:22:24.888Z,12.31
2019-05-12T00:24:58.385Z,12.32
2019-05-12T00:27:30.348Z,12.30
2019-05-12T00:30:02.593Z,12.31
2019-05-12T00:32:34.544Z,12.27
2019-05-12T00:35:08.062Z,12.31
2019-05-12T00:37:40.159Z,12.30
2019-05-12T00:40:12.220Z,12.29
2019-05-12T00:42:44.154Z,12.20
2019-05-12T00:45:18.072Z,12.14
2019-05-12T00:47:49.831Z,12.06
2019-05-12T00:50:21.860Z,11.96
2019-05-12T00:52:53.811Z,11.93
2019-05-12T00:55:25.773Z,11.90
2019-05-12T00:57:58.427Z,11.90
2019-05-12T01:00:30.751Z,11.91
2019-05-12T01:03:02.707Z,11.90
2019-05-12T01:05:34.714Z,11.87
2019-05-12T01:08:08.875Z,11.85
2019-05-12T01:10:40.297Z,11.85
2019-05-12T01:13:12.515Z,11.86
2019-05-12T01:15:44.458Z,11.89
2019-05-12T01:18:18.133Z,11.90
2019-05-12T01:20:50.039Z,11.92
2019-05-12T01:23:23.543Z,11.94
2019-05-12T01:25:58.284Z,11.93
2019-05-12T01:28:29.493Z,11.91
2019-05-12T01:31:03.352Z,11.90
2019-05-12T01:33:35.294Z,11.88
2019-05-12T01:36:08.035Z,11.85
2019-05-12T01:38:40.219Z,11.82
2019-05-12T01:41:12.152Z,11.82
2019-05-12T01:43:44.091Z,11.80
2019-05-12T01:46:18.083Z,11.79
2019-05-12T01:48:50.065Z,11.76
2019-05-12T01:51:22.362Z,11.72
2019-05-12T01:54:08.570Z,11.71
2019-05-12T01:56:28.761Z,11.72
2019-05-12T01:59:01.769Z,11.75
2019-05-12T02:01:33.726Z,11.73
2019-05-12T02:04:07.738Z,11.68
2019-05-12T02:06:39.367Z,11.60
2019-05-12T02:09:13.271Z,11.54
2019-05-12T02:11:45.499Z,11.47
2019-05-12T02:14:18.328Z,11.46
2019-05-12T02:16:50.424Z,11.46
2019-05-12T02:19:22.376Z,11.40
2019-05-12T02:21:54.328Z,11.36
2019-05-12T02:24:29.866Z,11.38
2019-05-12T02:27:00.199Z,11.38
2019-05-12T02:29:32.506Z,11.34
2019-05-12T02:32:04.448Z,11.30
2019-05-12T02:34:36.982Z,11.32
2019-05-12T02:37:08.917Z,11.33
2019-05-12T02:39:40.870Z,11.35
2019-05-12T02:42:15.637Z,11.32
2019-05-12T02:44:46.572Z,11.31
2019-05-12T02:47:18.533Z,11.30
2019-05-12T02:49:50.453Z,11.30
2019-05-12T02:52:25.059Z,11.27
2019-05-12T02:55:00.729Z,11.24
2019-05-12T02:57:34.381Z,11.22
2019-05-12T03:00:07.782Z,11.18
2019-05-12T03:02:44.188Z,11.14
2019-05-12T03:05:15.342Z,11.12
2019-05-12T03:07:49.785Z,11.09
2019-05-12T03:10:24.521Z,11.06
2019-05-12T03:12:55.432Z,10.99
2019-05-12T03:15:27.382Z,10.99
2019-05-12T03:17:59.390Z,11.00
2019-05-12T03:20:34.658Z,11.01
2019-05-12T03:23:06.537Z,11.03
2019-05-12T03:25:38.874Z,11.06
2019-05-12T03:28:10.834Z,11.11
2019-05-12T03:30:47.481Z,11.08
2019-05-12T03:33:19.453Z,11.05
2019-05-12T03:35:52.738Z,11.03
2019-05-12T03:38:25.061Z,11.02
2019-05-12T03:40:58.363Z,11.01
2019-05-12T03:43:30.639Z,11.01
2019-05-12T03:46:05.234Z,11.01
2019-05-12T03:48:36.242Z,11.10
2019-05-12T03:51:08.171Z,11.20
2019-05-12T03:53:40.120Z,11.25
2019-05-12T03:56:15.049Z,11.30
2019-05-12T03:58:45.760Z,11.26
2019-05-12T04:01:17.698Z,11.32
2019-05-12T04:03:49.641Z,11.36
2019-05-12T04:06:24.548Z,11.32
2019-05-12T04:08:59.738Z,11.29
2019-05-12T04:11:29.286Z,11.31
2019-05-12T04:14:01.234Z,11.47
2019-05-12T04:16:36.392Z,11.64
2019-05-12T04:19:06.827Z,11.78
2019-05-12T04:21:38.772Z,11.82
2019-05-12T04:24:10.728Z,11.90
2019-05-12T04:26:44.909Z,11.94
2019-05-12T04:29:17.384Z,12.06
2019-05-12T04:31:49.347Z,12.22
2019-05-12T04:34:21.295Z,12.44
2019-05-12T04:36:55.326Z,12.38
2019-05-12T04:39:27.069Z,12.27
2019-05-12T04:42:00.203Z,12.13
2019-05-12T04:44:34.727Z,11.94
2019-05-12T04:47:05.888Z,11.80
2019-05-12T04:49:38.792Z,11.65
2019-05-12T04:52:10.724Z,11.54
2019-05-12T04:54:44.500Z,11.49
2019-05-12T04:57:20.654Z,11.48
2019-05-12T04:59:49.943Z,11.44
2019-05-12T05:02:25.001Z,11.45
2019-05-12T05:04:55.545Z,11.45
2019-05-12T05:07:27.506Z,11.41
2019-05-12T05:09:59.719Z,11.41
2019-05-12T05:12:34.310Z,11.44
2019-05-12T05:15:07.388Z,11.57
2019-05-12T05:17:39.397Z,11.83
2019-05-12T05:20:13.586Z,11.86
2019-05-12T05:22:45.347Z,11.81
2019-05-12T05:25:17.455Z,11.92
2019-05-12T05:27:49.715Z,12.01
2019-05-12T05:30:21.685Z,11.97
2019-05-12T05:32:53.649Z,11.81
2019-05-12T05:35:28.924Z,11.70
2019-05-12T05:37:59.620Z,11.72
2019-05-12T05:40:31.575Z,11.71
2019-05-12T05:43:12.216Z,11.74
2019-05-12T05:45:37.241Z,11.81
2019-05-12T05:48:10.196Z,11.76
2019-05-12T05:50:43.852Z,11.69
2019-05-12T05:53:19.606Z,11.64
2019-05-12T05:55:50.328Z,11.58
2019-05-12T05:58:26.196Z,11.56
2019-05-12T06:01:02.960Z,11.60
2019-05-12T06:03:30.472Z,11.68
2019-05-12T06:06:10.802Z,11.68
2019-05-12T06:08:36.329Z,11.67
2019-05-12T06:11:08.687Z,11.77
2019-05-12T06:13:40.722Z,11.88
2019-05-12T06:16:20.178Z,11.92
2019-05-12T06:18:46.314Z,11.95
2019-05-12T06:21:18.340Z,11.89
2019-05-12T06:23:50.287Z,11.94
2019-05-12T06:26:30.828Z,12.09
2019-05-12T06:28:57.753Z,12.11
2019-05-12T06:31:30.072Z,11.94
2019-05-12T06:34:06.187Z,11.70
2019-05-12T06:36:36.866Z,11.77
2019-05-12T06:39:10.472Z,11.93
2019-05-12T06:41:44.376Z,12.00
2019-05-12T06:44:19.448Z,11.95
2019-05-12T06:46:53.538Z,11.83
2019-05-12T06:49:24.678Z,11.90
2019-05-12T06:52:01.444Z,12.06
2019-05-12T06:54:30.284Z,12.09
2019-05-12T06:57:18.635Z,12.07
2019-05-12T06:59:35.895Z,11.90
2019-05-12T07:02:08.010Z,11.88
2019-05-12T07:04:41.302Z,11.90
2019-05-12T07:07:14.285Z,11.99
2019-05-12T07:09:54.115Z,12.16
2019-05-12T07:12:24.921Z,12.31
2019-05-12T07:14:57.131Z,12.44
2019-05-12T07:17:28.945Z,12.49
2019-05-12T07:20:00.889Z,12.58
2019-05-12T07:22:43.582Z,12.71
2019-05-12T07:25:08.396Z,12.79
2019-05-12T07:27:45.686Z,12.85
2019-05-12T07:30:16.055Z,12.83
2019-05-12T07:32:51.296Z,12.80
2019-05-12T07:35:23.896Z,12.82
2019-05-12T07:37:59.258Z,12.79
2019-05-12T07:40:34.731Z,12.82
2019-05-12T07:43:09.905Z,12.89
2019-05-12T07:45:44.205Z,12.95
2019-05-12T07:48:16.143Z,12.81
2019-05-12T07:50:50.117Z,12.67
2019-05-12T07:53:23.353Z,12.74
2019-05-12T07:55:55.646Z,12.91
2019-05-12T07:58:27.593Z,12.97
2019-05-12T08:01:05.157Z,13.07
2019-05-12T08:03:34.566Z,12.91
2019-05-12T08:06:06.694Z,12.79
2019-05-12T08:08:41.828Z,12.74
2019-05-12T08:11:14.724Z,12.74
2019-05-12T08:13:45.929Z,12.83
2019-05-12T08:16:19.598Z,12.95
2019-05-12T08:18:53.490Z,13.12
2019-05-12T08:21:25.222Z,13.20
2019-05-12T08:23:57.174Z,13.16
2019-05-12T08:26:29.121Z,13.23
2019-05-12T08:29:01.093Z,13.31
2019-05-12T08:31:40.071Z,13.44
2019-05-12T08:34:06.685Z,13.38
2019-05-12T08:36:38.633Z,13.23
2019-05-12T08:39:11.917Z,13.17
2019-05-12T08:41:44.782Z,13.23
2019-05-12T08:44:17.631Z,13.34
2019-05-12T08:46:52.280Z,13.38
2019-05-12T08:49:23.606Z,13.39
2019-05-12T08:52:00.050Z,13.46
2019-05-12T08:54:29.415Z,13.47
2019-05-12T08:57:03.745Z,13.49
2019-05-12T08:59:35.131Z,13.51
2019-05-12T09:02:10.613Z,13.54
2019-05-12T09:04:45.340Z,13.37
2019-05-12T09:07:14.628Z,13.18
2019-05-12T09:09:46.992Z,13.17
2019-05-12T09:12:19.297Z,13.28
2019-05-12T09:14:54.458Z,13.37
2019-05-12T09:17:25.172Z,13.39
2019-05-12T09:20:05.926Z,13.43
2019-05-12T09:22:30.771Z,13.56
2019-05-12T09:25:06.131Z,13.36
2019-05-12T09:27:39.414Z,13.21
2019-05-12T09:30:14.015Z,13.34
2019-05-12T09:32:50.305Z,13.56
2019-05-12T09:35:19.185Z,13.81
2019-05-12T09:37:53.432Z,13.77
2019-05-12T09:40:24.827Z,13.62
2019-05-12T09:43:00.177Z,13.54
2019-05-12T09:45:30.830Z,13.63
2019-05-12T09:48:06.929Z,13.76
2019-05-12T09:50:36.444Z,13.88
2019-05-12T09:53:11.477Z,13.90
2019-05-12T09:55:43.783Z,14.00
2019-05-12T09:58:23.044Z,14.06
2019-05-12T10:00:49.854Z,13.83
2019-05-12T10:03:24.080Z,13.71
2019-05-12T10:05:55.453Z,13.81
2019-05-12T10:08:29.256Z,13.88
2019-05-12T10:11:01.117Z,13.91
2019-05-12T10:13:33.109Z,13.98
2019-05-12T10:16:08.794Z,13.92
2019-05-12T10:18:45.436Z,13.88
2019-05-12T10:21:15.500Z,13.91
2019-05-12T10:23:46.166Z,14.01
2019-05-12T10:26:18.318Z,14.08
2019-05-12T10:28:56.133Z,14.19
2019-05-12T10:31:24.395Z,13.90
2019-05-12T10:33:58.619Z,14.00
2019-05-12T10:36:30.573Z,14.04
2019-05-12T10:39:04.290Z,14.23
2019-05-12T10:41:36.269Z,14.12
2019-05-12T10:44:08.231Z,13.95
2019-05-12T10:46:42.407Z,13.95
2019-05-12T10:49:13.996Z,13.96
2019-05-12T10:51:47.693Z,14.11
2019-05-12T10:54:19.753Z,14.19
2019-05-12T10:56:54.250Z,14.06
2019-05-12T10:59:32.228Z,13.91
2019-05-12T11:01:59.858Z,13.89
2019-05-12T11:04:36.958Z,13.91
2019-05-12T11:07:05.892Z,14.03
2019-05-12T11:09:38.552Z,14.14
2019-05-12T11:12:10.882Z,14.20
2019-05-12T11:14:43.898Z,14.21
2019-05-12T11:17:16.256Z,14.26
2019-05-12T11:19:51.265Z,14.35
2019-05-12T11:22:21.911Z,14.39
2019-05-12T11:24:55.841Z,14.42
2019-05-12T11:27:27.512Z,14.51
2019-05-12T11:29:59.449Z,14.55
2019-05-12T11:32:34.929Z,14.51
2019-05-12T11:35:05.457Z,14.48
2019-05-12T11:37:37.795Z,14.53
2019-05-12T11:40:10.573Z,14.57
2019-05-12T11:42:48.403Z,14.60
2019-05-12T11:45:16.536Z,14.43
2019-05-12T11:47:49.317Z,14.32
2019-05-12T11:50:21.338Z,14.16
2019-05-12T11:52:53.282Z,14.02
2019-05-12T11:55:30.158Z,13.90
2019-05-12T11:58:00.374Z,13.95
2019-05-12T12:00:34.566Z,14.16
2019-05-12T12:03:12.538Z,14.31
2019-05-12T12:05:40.321Z,14.40
2019-05-12T12:08:14.408Z,14.34
2019-05-12T12:10:48.999Z,14.16
2019-05-12T12:13:25.563Z,14.13
2019-05-12T12:15:53.579Z,14.28
2019-05-12T12:18:25.516Z,14.47
2019-05-12T12:21:04.166Z,14.58
2019-05-12T12:23:33.438Z,14.61
2019-05-12T12:26:05.615Z,14.68
2019-05-12T12:28:37.603Z,14.76
2019-05-12T12:31:09.537Z,14.81
2019-05-12T12:33:46.719Z,14.90
2019-05-12T12:36:15.146Z,14.94
2019-05-12T12:38:47.262Z,14.87
2019-05-12T12:41:19.225Z,14.67
2019-05-12T12:43:51.247Z,14.52
2019-05-12T12:46:24.856Z,14.56
2019-05-12T12:49:00.157Z,14.59
2019-05-12T12:51:30.742Z,14.61
2019-05-12T12:54:03.266Z,14.62
2019-05-12T12:56:35.472Z,14.58
2019-05-12T12:59:12.015Z,14.48
2019-05-12T13:01:41.076Z,14.56
2019-05-12T13:04:13.365Z,14.52
2019-05-12T13:06:45.329Z,14.46
2019-05-12T13:09:24.163Z,14.56
2019-05-12T13:11:53.582Z,14.69
2019-05-12T13:14:28.675Z,14.86
2019-05-12T13:16:58.281Z,15.06
2019-05-12T13:19:30.242Z,15.27
2019-05-12T13:22:03.719Z,15.39
2019-05-12T13:24:36.288Z,15.42
2019-05-12T13:27:08.248Z,15.39
2019-05-12T13:29:40.541Z,15.39
2019-05-12T13:32:13.760Z,15.43
2019-05-12T13:34:45.812Z,15.28
2019-05-12T13:37:19.432Z,15.09
2019-05-12T13:39:56.853Z,15.05
2019-05-12T13:42:25.350Z,14.99
2019-05-12T13:44:57.295Z,15.07
2019-05-12T13:47:35.463Z,15.16
2019-05-12T13:50:04.030Z,15.26
2019-05-12T13:52:36.103Z,15.33
2019-05-12T13:55:08.640Z,15.35
2019-05-12T13:57:46.580Z,15.42
2019-05-12T14:00:15.262Z,15.48
2019-05-12T14:02:48.943Z,15.37
2019-05-12T14:05:20.913Z,15.31
2019-05-12T14:07:55.665Z,15.26
2019-05-12T14:10:27.221Z,15.31
2019-05-12T14:12:59.157Z,15.36
2019-05-12T14:15:33.903Z,15.44
2019-05-12T14:18:05.407Z,15.46
2019-05-12T14:20:39.056Z,15.48
2019-05-12T14:23:10.999Z,15.54
2019-05-12T14:25:43.764Z,15.62
2019-05-12T14:28:16.778Z,15.67
2019-05-12T14:30:51.618Z,15.67
2019-05-12T14:33:24.373Z,15.71
2019-05-12T14:35:56.384Z,15.77
2019-05-12T14:38:29.896Z,15.83
2019-05-12T14:41:09.622Z,15.83
2019-05-12T14:43:37.235Z,15.85
2019-05-12T14:46:10.501Z,15.83
2019-05-12T14:48:48.514Z,15.75
2019-05-12T14:51:16.829Z,15.74
2019-05-12T14:53:49.135Z,15.75
2019-05-12T14:56:23.209Z,15.74
2019-05-12T14:58:56.602Z,15.70
2019-05-12T15:01:44.183Z,15.70
2019-05-12T15:04:02.304Z,15.75
2019-05-12T15:06:34.251Z,15.77
2019-05-12T15:09:11.466Z,15.79
2019-05-12T15:11:43.725Z,15.81
2019-05-12T15:14:15.329Z,15.85
2019-05-12T15:16:47.568Z,15.83
2019-05-12T15:19:20.912Z,15.83
2019-05-12T15:21:53.740Z,15.81
2019-05-12T15:24:25.880Z,15.86
2019-05-12T15:27:00.739Z,15.90
2019-05-12T15:29:33.788Z,15.94
2019-05-12T15:32:05.659Z,15.98
2019-05-12T15:34:37.680Z,16.04
2019-05-12T15:37:09.586Z,16.02
2019-05-12T15:39:43.914Z,16.00
2019-05-12T15:42:15.709Z,16.03
2019-05-12T15:44:47.824Z,16.01
2019-05-12T15:47:19.759Z,15.99
2019-05-12T15:49:53.437Z,15.98
2019-05-12T15:52:29.970Z,15.99
2019-05-12T15:54:59.203Z,15.97
2019-05-12T15:57:33.357Z,15.97
2019-05-12T16:00:10.314Z,15.97
2019-05-12T16:02:44.312Z,15.90
2019-05-12T16:05:20.135Z,15.92
2019-05-12T16:07:49.901Z,15.94
2019-05-12T16:10:23.646Z,15.94
2019-05-12T16:12:56.149Z,15.90
2019-05-12T16:15:28.096Z,15.85
2019-05-12T16:18:05.806Z,15.87
2019-05-12T16:20:34.232Z,15.83
2019-05-12T16:23:06.181Z,15.80
2019-05-12T16:25:38.151Z,15.81
2019-05-12T16:28:15.593Z,15.75
2019-05-12T16:30:47.241Z,15.75
2019-05-12T16:33:20.802Z,15.77
2019-05-12T16:35:54.393Z,15.79
2019-05-12T16:38:26.964Z,15.83
2019-05-12T16:41:00.276Z,15.86
2019-05-12T16:43:34.913Z,15.83
2019-05-12T16:46:06.247Z,15.84
2019-05-12T16:48:42.137Z,15.83
2019-05-12T16:51:13.830Z,15.84
2019-05-12T16:53:46.009Z,15.84
2019-05-12T16:56:20.048Z,15.81
2019-05-12T16:58:54.019Z,15.79
2019-05-12T17:01:29.212Z,15.80
2019-05-12T17:03:59.010Z,15.83
2019-05-12T17:06:34.875Z,15.82
2019-05-12T17:09:07.615Z,15.77
2019-05-12T17:11:47.153Z,15.79
2019-05-12T17:14:13.504Z,15.80
2019-05-12T17:16:46.662Z,15.81
2019-05-12T17:19:18.836Z,15.81
2019-05-12T17:21:58.044Z,15.81
2019-05-12T17:24:24.730Z,15.86
2019-05-12T17:26:56.668Z,15.90
2019-05-12T17:29:28.627Z,15.89
2019-05-12T17:32:00.581Z,15.85
2019-05-12T17:34:34.022Z,15.84
2019-05-12T17:37:06.711Z,15.84
2019-05-12T17:39:39.277Z,15.84
2019-05-12T17:42:14.887Z,15.77
2019-05-12T17:44:45.432Z,15.67
2019-05-12T17:47:21.384Z,15.60
2019-05-12T17:49:53.760Z,15.57
2019-05-12T17:52:25.052Z,15.57
2019-05-12T17:55:04.374Z,15.56
2019-05-12T17:57:30.704Z,15.54
2019-05-12T18:00:06.130Z,15.49
2019-05-12T18:02:37.063Z,15.47
2019-05-12T18:05:12.327Z,15.48
2019-05-12T18:07:44.356Z,15.44
2019-05-12T18:10:17.278Z,15.39
2019-05-12T18:12:49.582Z,15.36
2019-05-12T18:15:29.390Z,15.34
2019-05-12T18:17:55.589Z,15.28
2019-05-12T18:20:31.095Z,15.22
2019-05-12T18:23:03.820Z,15.17
2019-05-12T18:25:36.861Z,15.14
2019-05-12T18:28:08.960Z,15.12
2019-05-12T18:30:40.921Z,15.22
2019-05-12T18:33:13.759Z,15.43
2019-05-12T18:35:45.778Z,15.48
2019-05-12T18:38:22.987Z,15.40
2019-05-12T18:40:53.980Z,15.29
2019-05-12T18:43:25.429Z,15.15
2019-05-12T18:46:05.223Z,15.00
2019-05-12T18:48:34.204Z,14.92
2019-05-12T18:51:12.025Z,14.84
2019-05-12T18:53:38.348Z,14.75
2019-05-12T18:56:16.160Z,14.67
2019-05-12T18:58:45.104Z,14.62
2019-05-12T19:01:17.081Z,14.53
2019-05-12T19:03:51.153Z,14.48
2019-05-12T19:06:23.434Z,14.40
2019-05-12T19:08:55.659Z,14.34
2019-05-12T19:11:37.429Z,14.30
2019-05-12T19:14:01.255Z,14.24
2019-05-12T19:16:33.284Z,14.19
2019-05-12T19:19:09.633Z,14.16
2019-05-12T19:21:43.810Z,14.09
2019-05-12T19:24:19.903Z,14.04
2019-05-12T19:26:50.171Z,14.04
2019-05-12T19:29:24.377Z,14.01
2019-05-12T19:35:38.072Z,13.92
2019-05-12T19:38:10.181Z,13.89
2019-05-12T19:40:48.984Z,13.71
2019-05-12T19:43:16.002Z,13.79
2019-05-12T19:45:53.481Z,13.76
2019-05-12T19:48:27.098Z,13.77
2019-05-12T19:50:57.242Z,13.79
2019-05-12T19:53:29.464Z,13.80
2019-05-12T19:56:03.639Z,13.75
2019-05-12T19:58:35.491Z,13.77
2019-05-12T20:01:07.535Z,13.76
2019-05-12T20:03:39.557Z,13.76
2019-05-12T20:06:13.536Z,13.73
2019-05-12T20:08:45.739Z,13.69
2019-05-12T20:11:20.087Z,13.65
2019-05-12T20:13:53.797Z,13.60
2019-05-12T20:16:30.367Z,13.58
2019-05-12T20:19:00.416Z,13.56
2019-05-12T20:21:33.983Z,13.53
2019-05-12T20:24:06.040Z,13.54
2019-05-12T20:26:38.707Z,13.54
2019-05-12T20:29:13.827Z,13.51
2019-05-12T20:31:48.632Z,13.48
2019-05-12T20:34:19.138Z,13.44
2019-05-12T20:36:53.540Z,13.41
2019-05-12T20:39:24.892Z,13.40
2019-05-12T20:42:00.866Z,13.41
2019-05-12T20:44:30.842Z,13.41
2019-05-12T20:47:06.415Z,13.39
2019-05-12T20:49:36.621Z,13.37
2019-05-12T20:52:09.716Z,13.36
2019-05-12T20:54:43.970Z,13.32
2019-05-12T20:57:15.760Z,13.29
2019-05-12T20:59:47.729Z,13.29
2019-05-12T21:02:19.814Z,13.27
2019-05-12T21:05:00.398Z,13.25
2019-05-12T21:07:27.109Z,13.24
2019-05-12T21:09:59.375Z,13.22
2019-05-12T21:12:33.283Z,13.22
2019-05-12T21:15:16.282Z,13.22
2019-05-12T21:17:43.588Z,13.21
2019-05-12T21:20:16.598Z,13.20
2019-05-12T21:22:47.760Z,13.18
2019-05-12T21:25:19.862Z,13.17
2019-05-12T21:27:53.825Z,13.15
2019-05-12T21:30:25.906Z,13.14
2019-05-12T21:33:01.229Z,13.13
2019-05-12T21:35:40.351Z,13.13
2019-05-12T21:38:05.650Z,13.13
2019-05-12T21:40:37.718Z,13.09
2019-05-12T21:43:09.710Z,13.06
2019-05-12T21:45:41.687Z,13.07
2019-05-12T21:48:15.007Z,13.08
2019-05-12T21:50:47.385Z,13.06
2019-05-12T21:53:20.571Z,13.05
2019-05-12T21:55:57.634Z,13.05
2019-05-12T21:58:26.736Z,13.06
2019-05-12T22:01:05.226Z,13.06
2019-05-12T22:03:36.575Z,13.03
2019-05-12T22:06:19.077Z,13.02
2019-05-12T22:08:44.226Z,13.00
2019-05-12T22:11:16.361Z,12.96
2019-05-12T22:13:56.171Z,12.94
2019-05-12T22:16:23.573Z,12.94
2019-05-12T22:18:59.240Z,12.93
2019-05-12T22:21:29.529Z,12.90
2019-05-12T22:24:03.913Z,12.88
2019-05-12T22:26:39.694Z,12.88
2019-05-12T22:29:09.190Z,12.87
2019-05-12T22:31:44.702Z,12.85
2019-05-12T22:34:15.546Z,12.83
2019-05-12T22:36:55.236Z,12.83
2019-05-12T22:39:21.238Z,12.84
2019-05-12T22:41:53.208Z,12.81
2019-05-12T22:44:25.448Z,12.79
2019-05-12T22:46:57.444Z,12.78
2019-05-12T22:49:29.470Z,12.76
2019-05-12T22:52:04.792Z,12.77
2019-05-12T22:54:35.183Z,12.77
2019-05-12T22:57:07.501Z,12.76
2019-05-12T22:59:40.690Z,12.74
2019-05-12T23:02:15.941Z,12.75
2019-05-12T23:04:46.897Z,12.76
2019-05-12T23:07:24.435Z,12.76
2019-05-12T23:09:53.794Z,12.77
2019-05-12T23:12:25.834Z,12.77
2019-05-12T23:15:02.804Z,12.76
2019-05-12T23:17:33.749Z,12.74
2019-05-12T23:20:07.021Z,12.74
2019-05-12T23:22:39.021Z,12.72
2019-05-12T23:25:11.498Z,12.71
2019-05-12T23:27:44.882Z,12.68
2019-05-12T23:30:17.240Z,12.67
2019-05-12T23:32:51.259Z,12.64
2019-05-12T23:35:23.180Z,12.63
2019-05-12T23:37:55.482Z,12.62
2019-05-12T23:40:27.466Z,12.62
2019-05-12T23:42:59.559Z,12.58
2019-05-12T23:45:33.981Z,12.57
2019-05-12T23:48:05.773Z,12.57
2019-05-12T23:50:37.958Z,12.55
2019-05-12T23:53:09.937Z,12.53
2019-05-12T23:55:43.745Z,12.53
2019-05-12T23:58:15.970Z,12.52
